Time;durP1;ratioP1;P1;durP2;ratioP2;P2;SDS_P1;SDS_P2;PMS_P1;PMS_P2;Temp;Humidity;BMP_temperature;BMP_pressure;BME280_temperature;BME280_humidity;BME280_pressure;Samples;Min_cycle;Max_cycle;Signal;HPM_P1;HPM_P2
2023/09/24 00:03:15;;;;;;;;;;;;;;;21.88;48.89;96305.75;10356312;28;1882;-76
2023/09/24 00:08:16;;;;;;;;;;;;;;;21.86;48.84;96298.06;10354563;28;1914;-74
2023/09/24 00:13:17;;;;;;;;;;;;;;;21.86;48.79;96299.94;10351940;28;2199;-76
2023/09/24 00:18:17;;;;;;;;;;;;;;;21.87;48.39;96306.78;10347636;28;2085;-76
2023/09/24 00:23:18;;;;;;;;;;;;;;;21.86;48.78;96315.78;10338742;28;1965;-77
2023/09/24 00:28:18;;;;;;;;;;;;;;;21.85;48.45;96309.69;10340122;28;3104;-76
2023/09/24 00:33:19;;;;;;;;;;;;;;;21.85;48.67;96319.47;10372337;28;2064;-77
2023/09/24 00:38:19;;;;;;;;;;;;;;;21.84;48.65;96329.22;10366599;28;2250;-76
2023/09/24 00:43:32;;;;;;;;;;;;;;;21.84;48.79;96334.50;10348369;28;4699;-76
2023/09/24 00:48:36;;;;;;;;;;;;;;;21.84;48.61;96336.38;10340692;28;2083;-76
2023/09/24 00:53:38;;;;;;;;;;;;;;;21.84;48.53;96333.72;10351677;28;1911;-75
2023/09/24 00:58:38;;;;;;;;;;;;;;;21.83;48.42;96337.41;10345202;28;1942;-77
2023/09/24 01:03:40;;;;;;;;;;;;;;;21.82;48.38;96341.13;10358720;28;2001;-76
2023/09/24 01:08:42;;;;;;;;;;;;;;;21.81;48.55;96328.94;10346884;28;1981;-77
2023/09/24 01:13:43;;;;;;;;;;;;;;;21.82;48.49;96341.13;10339263;28;2738;-76
2023/09/24 01:18:44;;;;;;;;;;;;;;;21.81;48.62;96350.03;10336832;28;1880;-77
2023/09/24 01:23:45;;;;;;;;;;;;;;;21.80;48.54;96343.97;10357936;28;1849;-77
2023/09/24 01:28:47;;;;;;;;;;;;;;;21.81;48.39;96339.50;10332894;28;1973;-77
2023/09/24 01:33:47;;;;;;;;;;;;;;;21.80;48.52;96351.13;10356372;28;2096;-77
2023/09/24 01:38:47;;;;;;;;;;;;;;;21.80;48.53;96346.59;10364228;28;1921;-77
2023/09/24 01:43:48;;;;;;;;;;;;;;;21.79;48.56;96349.53;10351546;28;4605;-77
2023/09/24 01:48:54;;;;;;;;;;;;;;;21.78;48.47;96361.91;10348188;28;1930;-76
2023/09/24 01:53:54;;;;;;;;;;;;;;;21.78;48.52;96364.56;10328203;28;1964;-76
2023/09/24 01:58:54;;;;;;;;;;;;;;;21.77;48.51;96365.63;10348288;28;2446;-77
2023/09/24 02:03:59;;;;;;;;;;;;;;;21.77;48.36;96376.19;10363270;28;2027;-77
2023/09/24 02:09:01;;;;;;;;;;;;;;;21.77;48.42;96388.59;10334720;28;2046;-76
2023/09/24 02:14:02;;;;;;;;;;;;;;;21.76;48.08;96395.69;10350502;28;1964;-77
2023/09/24 02:19:02;;;;;;;;;;;;;;;21.75;48.34;96401.25;10366590;28;1921;-77
2023/09/24 02:24:04;;;;;;;;;;;;;;;21.76;48.44;96410.75;10356793;28;1890;-76
2023/09/24 02:29:05;;;;;;;;;;;;;;;21.75;48.36;96414.44;10371369;28;1961;-77
2023/09/24 02:34:05;;;;;;;;;;;;;;;21.74;48.10;96416.28;10353006;28;1902;-76
2023/09/24 02:39:06;;;;;;;;;;;;;;;21.74;48.17;96418.16;10343346;28;2325;-77
2023/09/24 02:44:06;;;;;;;;;;;;;;;21.73;48.36;96427.13;10356539;28;4588;-77
2023/09/24 02:49:07;;;;;;;;;;;;;;;21.73;48.29;96438.47;10333352;28;2037;-77
2023/09/24 02:54:08;;;;;;;;;;;;;;;21.72;47.97;96444.03;10359722;28;1976;-77
2023/09/24 02:59:11;;;;;;;;;;;;;;;21.72;48.15;96441.38;10340372;28;1931;-75
2023/09/24 03:04:12;;;;;;;;;;;;;;;21.71;48.17;96450.34;10346168;28;2246;-77
2023/09/24 03:09:12;;;;;;;;;;;;;;;21.71;48.23;96459.06;10361445;28;1983;-77
2023/09/24 03:14:12;;;;;;;;;;;;;;;21.71;48.27;96460.88;10328970;28;1937;-76
2023/09/24 03:19:13;;;;;;;;;;;;;;;21.70;48.10;96459.31;10337222;28;1939;-76
2023/09/24 03:24:14;;;;;;;;;;;;;;;21.70;48.08;96454.03;10337549;28;1889;-77
2023/09/24 03:29:15;;;;;;;;;;;;;;;21.70;48.19;96465.38;10332665;28;2107;-77
2023/09/24 03:34:16;;;;;;;;;;;;;;;21.69;48.16;96463.81;10320530;28;1845;-77
2023/09/24 03:39:16;;;;;;;;;;;;;;;21.68;48.22;96466.69;10347719;28;1943;-76
2023/09/24 03:44:16;;;;;;;;;;;;;;;21.68;48.10;96471.97;10357669;28;4499;-76
2023/09/24 03:49:16;;;;;;;;;;;;;;;21.67;48.16;96468.56;10349026;28;1910;-76
2023/09/24 03:54:17;;;;;;;;;;;;;;;21.66;48.01;96461.66;10371321;28;1842;-76
2023/09/24 03:59:17;;;;;;;;;;;;;;;21.67;48.17;96478.31;10344635;28;1902;-76
2023/09/24 04:04:19;;;;;;;;;;;;;;;21.66;48.05;96474.88;10365775;28;2033;-76
2023/09/24 04:09:19;;;;;;;;;;;;;;;21.66;48.10;96474.06;10334821;28;1913;-76
2023/09/24 04:14:20;;;;;;;;;;;;;;;21.64;48.12;96474.34;10343941;28;1828;-77
2023/09/24 04:19:20;;;;;;;;;;;;;;;21.65;47.91;96475.13;10360244;28;1897;-77
2023/09/24 04:24:21;;;;;;;;;;;;;;;21.64;48.02;96476.19;10365523;28;1846;-77
2023/09/24 04:29:21;;;;;;;;;;;;;;;21.63;47.77;96483.31;10348028;28;3142;-76
2023/09/24 04:34:21;;;;;;;;;;;;;;;21.63;47.91;96490.44;10330142;28;1870;-75
2023/09/24 04:39:22;;;;;;;;;;;;;;;21.63;48.03;96493.06;10361881;28;1795;-76
2023/09/24 04:44:23;;;;;;;;;;;;;;;21.62;47.99;96505.47;10344059;28;4527;-76
2023/09/24 04:49:23;;;;;;;;;;;;;;;21.62;47.93;96496.75;10350826;28;1909;-76
2023/09/24 04:54:23;;;;;;;;;;;;;;;21.61;47.96;96497.81;10331870;28;1913;-76
2023/09/24 04:59:24;;;;;;;;;;;;;;;21.61;48.05;96497.81;10358186;28;1824;-76
2023/09/24 05:04:25;;;;;;;;;;;;;;;21.60;47.70;96504.13;10369172;28;1842;-76
2023/09/24 05:09:28;;;;;;;;;;;;;;;21.60;47.95;96504.13;10346744;28;1969;-76
2023/09/24 05:14:29;;;;;;;;;;;;;;;21.60;48.06;96512.06;10335684;28;2744;-76
2023/09/24 05:19:29;;;;;;;;;;;;;;;21.59;47.86;96526.31;10335341;28;1808;-76
2023/09/24 05:24:32;;;;;;;;;;;;;;;21.58;47.79;96516.81;10350268;28;1925;-76
2023/09/24 05:29:32;;;;;;;;;;;;;;;21.59;47.60;96523.69;10363410;28;1954;-76
2023/09/24 05:34:33;;;;;;;;;;;;;;;21.58;47.85;96524.72;10347480;28;1855;-76
2023/09/24 05:39:33;;;;;;;;;;;;;;;21.57;47.63;96538.97;10356821;28;1881;-76
2023/09/24 05:44:33;;;;;;;;;;;;;;;21.57;47.85;96541.63;10339940;28;4555;-75
2023/09/24 05:49:34;;;;;;;;;;;;;;;21.57;47.73;96544.25;10340736;28;1914;-75
2023/09/24 05:54:34;;;;;;;;;;;;;;;21.57;47.73;96554.81;10343757;28;1974;-75
2023/09/24 05:59:34;;;;;;;;;;;;;;;21.56;47.75;96550.56;10357134;28;2761;-76
2023/09/24 06:04:35;;;;;;;;;;;;;;;21.55;47.42;96560.34;10362982;28;1841;-76
2023/09/24 06:09:35;;;;;;;;;;;;;;;21.55;47.80;96557.72;10357066;28;1977;-75
2023/09/24 06:14:35;;;;;;;;;;;;;;;21.56;47.58;96569.03;10336609;28;1920;-77
2023/09/24 06:19:35;;;;;;;;;;;;;;;21.54;47.40;96564.03;10359992;28;1936;-77
2023/09/24 06:24:36;;;;;;;;;;;;;;;21.54;47.66;96571.13;10347008;28;1874;-76
2023/09/24 06:29:36;;;;;;;;;;;;;;;21.54;47.42;96573.78;10344112;28;2126;-75
2023/09/24 06:34:37;;;;;;;;;;;;;;;21.54;47.68;96581.69;10370304;28;1945;-76
2023/09/24 06:39:38;;;;;;;;;;;;;;;21.54;47.77;96579.06;10330453;28;1909;-76
2023/09/24 06:44:38;;;;;;;;;;;;;;;21.54;47.71;96605.44;10341849;28;4472;-75
2023/09/24 06:49:38;;;;;;;;;;;;;;;21.54;47.55;96592.25;10350469;28;1887;-76
2023/09/24 06:54:38;;;;;;;;;;;;;;;21.54;47.83;96608.06;10371052;28;1844;-75
2023/09/24 06:59:39;;;;;;;;;;;;;;;21.55;47.77;96612.31;10331414;28;1875;-75
2023/09/24 07:04:39;;;;;;;;;;;;;;;21.54;47.76;96608.88;10351865;28;2740;-74
2023/09/24 07:09:40;;;;;;;;;;;;;;;21.55;47.80;96612.31;10354398;28;1969;-76
2023/09/24 07:14:40;;;;;;;;;;;;;;;21.54;47.90;96614.16;10339848;28;1846;-76
2023/09/24 07:19:41;;;;;;;;;;;;;;;21.55;47.86;96613.09;10375640;28;2018;-76
2023/09/24 07:24:41;;;;;;;;;;;;;;;21.55;47.87;96622.88;10343744;28;1838;-77
2023/09/24 07:29:43;;;;;;;;;;;;;;;21.57;48.21;96626.03;10351107;28;1927;-76
2023/09/24 07:34:46;;;;;;;;;;;;;;;21.55;48.19;96621.03;10353299;28;1943;-76
2023/09/24 07:39:49;;;;;;;;;;;;;;;21.56;48.34;96621.78;10353459;28;2054;-77
2023/09/24 07:44:49;;;;;;;;;;;;;;;21.58;48.68;96628.41;10337879;28;1986;-74
2023/09/24 07:49:50;;;;;;;;;;;;;;;21.59;48.64;96629.22;10356346;28;1975;-85
2023/09/24 07:54:50;;;;;;;;;;;;;;;21.60;49.13;96622.88;10321670;28;1896;-78
2023/09/24 07:59:50;;;;;;;;;;;;;;;21.61;49.00;96630.53;10328235;28;1847;-79
2023/09/24 08:04:50;;;;;;;;;;;;;;;21.62;49.22;96636.59;10330889;28;2736;-77
2023/09/24 08:09:51;;;;;;;;;;;;;;;21.56;48.00;96637.63;10338426;28;1934;-77
2023/09/24 08:14:52;;;;;;;;;;;;;;;21.51;47.86;96629.72;10353947;28;2009;-77
2023/09/24 08:19:52;;;;;;;;;;;;;;;21.45;47.16;96630.75;10347953;28;1992;-74
2023/09/24 08:24:53;;;;;;;;;;;;;;;21.44;47.32;96634.41;10344871;28;1897;-77
2023/09/24 08:29:53;;;;;;;;;;;;;;;21.50;47.86;96638.66;10338532;28;1977;-78
2023/09/24 08:34:53;;;;;;;;;;;;;;;21.53;48.23;96640.78;10323528;28;1846;-79
2023/09/24 08:39:54;;;;;;;;;;;;;;;21.56;48.55;96640.25;10351156;28;4423;-78
2023/09/24 08:44:56;;;;;;;;;;;;;;;21.58;48.53;96651.34;10332609;28;2298;-77
2023/09/24 08:49:57;;;;;;;;;;;;;;;21.59;48.87;96639.75;10338204;28;2672;-79
2023/09/24 08:54:57;;;;;;;;;;;;;;;21.58;48.64;96646.88;10318692;28;1924;-79
2023/09/24 08:59:57;;;;;;;;;;;;;;;21.59;48.68;96651.13;10322427;28;1896;-78
2023/09/24 09:04:57;;;;;;;;;;;;;;;21.59;48.83;96648.47;10325680;28;1903;-78
2023/09/24 09:10:01;;;;;;;;;;;;;;;21.60;48.93;96643.97;10334028;28;1917;-77
2023/09/24 09:15:01;;;;;;;;;;;;;;;21.60;48.78;96644.78;10349690;28;1901;-78
2023/09/24 09:20:01;;;;;;;;;;;;;;;21.59;48.31;96637.94;10333695;28;1900;-79
2023/09/24 09:25:04;;;;;;;;;;;;;;;21.62;48.86;96637.38;10328089;28;1885;-78
2023/09/24 09:30:11;;;;;;;;;;;;;;;21.64;48.99;96634.50;10330280;28;1906;-79
2023/09/24 09:35:11;;;;;;;;;;;;;;;21.64;48.74;96634.50;10359466;28;1908;-78
2023/09/24 09:40:11;;;;;;;;;;;;;;;21.64;48.88;96632.66;10342902;28;1904;-79
2023/09/24 09:45:12;;;;;;;;;;;;;;;21.65;49.07;96625.53;10336009;28;2035;-78
2023/09/24 09:50:12;;;;;;;;;;;;;;;21.66;48.94;96632.38;10337472;28;1912;-80
2023/09/24 09:55:12;;;;;;;;;;;;;;;21.66;48.96;96629.75;10322805;28;1915;-81
2023/09/24 10:00:14;;;;;;;;;;;;;;;21.67;49.23;96623.44;10333115;28;1978;-81
2023/09/24 10:05:15;;;;;;;;;;;;;;;21.67;49.58;96621.59;10350695;28;2704;-80
2023/09/24 10:10:31;;;;;;;;;;;;;;;21.68;48.93;96619.72;10326292;28;1938;-81
2023/09/24 10:15:31;;;;;;;;;;;;;;;21.70;49.40;96625.56;10363380;28;2220;-76
2023/09/24 10:20:59;;;;;;;;;;;;;;;21.71;49.58;96616.56;10334532;28;2059;-77
2023/09/24 10:26:00;;;;;;;;;;;;;;;21.72;49.54;96618.19;10356514;28;1960;-77
2023/09/24 10:31:08;;;;;;;;;;;;;;;21.74;49.73;96619.47;10334504;28;2032;-81
2023/09/24 10:36:19;;;;;;;;;;;;;;;21.75;49.77;96607.09;10351299;28;1929;-81
2023/09/24 10:41:20;;;;;;;;;;;;;;;21.74;49.63;96602.88;10329444;28;4492;-80
2023/09/24 10:46:27;;;;;;;;;;;;;;;21.76;49.56;96598.13;10341157;28;1904;-80
2023/09/24 10:51:27;;;;;;;;;;;;;;;21.76;48.76;96606.06;10350032;28;2555;-77
2023/09/24 10:56:28;;;;;;;;;;;;;;;21.69;48.98;96605.50;10344849;28;1940;-80
2023/09/24 11:01:29;;;;;;;;;;;;;;;21.67;48.58;96607.59;10330758;28;1979;-85
2023/09/24 11:06:31;;;;;;;;;;;;;;;21.64;47.82;96602.81;10347080;28;2040;-90
2023/09/24 11:11:32;;;;;;;;;;;;;;;21.58;47.42;96609.94;10347555;28;2003;-86
2023/09/24 11:16:34;;;;;;;;;;;;;;;21.55;47.09;96609.66;10352112;28;1864;-84
2023/09/24 11:21:35;;;;;;;;;;;;;;;21.56;47.84;96606.78;10350123;28;1886;-84
2023/09/24 11:26:35;;;;;;;;;;;;;;;21.56;48.21;96606.78;10362798;28;2062;-85
2023/09/24 11:31:35;;;;;;;;;;;;;;;21.59;47.89;96606.25;10348722;28;2017;-83
2023/09/24 11:36:35;;;;;;;;;;;;;;;21.59;47.52;96605.47;10356114;28;2682;-84
2023/09/24 11:41:36;;;;;;;;;;;;;;;21.59;47.20;96606.25;10313549;28;4427;-84
2023/09/24 11:46:38;;;;;;;;;;;;;;;21.59;46.92;96595.72;10343298;28;2020;-83
2023/09/24 11:51:39;;;;;;;;;;;;;;;21.50;45.74;96602.53;10343601;28;2400;-83
2023/09/24 11:56:39;;;;;;;;;;;;;;;21.50;46.40;96607.81;10363527;28;1932;-85
2023/09/24 12:01:39;;;;;;;;;;;;;;;21.47;45.87;96599.63;10334008;28;2047;-83
2023/09/24 12:06:39;;;;;;;;;;;;;;;21.49;46.79;96589.59;10344596;28;2033;-83
2023/09/24 12:11:40;;;;;;;;;;;;;;;21.52;47.84;96596.97;10352919;28;1984;-81
2023/09/24 12:16:40;;;;;;;;;;;;;;;21.59;47.91;96581.72;10363634;28;2006;-79
2023/09/24 12:21:40;;;;;;;;;;;;;;;21.64;47.89;96584.34;10355194;28;2083;-76
2023/09/24 12:26:40;;;;;;;;;;;;;;;21.67;47.87;96582.00;10323741;28;1975;-80
2023/09/24 12:31:41;;;;;;;;;;;;;;;21.74;47.55;96582.53;10358132;28;1984;-83
2023/09/24 12:36:41;;;;;;;;;;;;;;;21.75;47.42;96578.06;10343180;28;3023;-77
2023/09/24 12:41:41;;;;;;;;;;;;;;;21.75;47.44;96584.13;10341971;28;4661;-78
2023/09/24 12:46:42;;;;;;;;;;;;;;;21.77;47.21;96581.22;10346975;28;2201;-77
2023/09/24 12:51:42;;;;;;;;;;;;;;;21.74;47.19;96576.50;10363865;28;1979;-76
2023/09/24 12:56:43;;;;;;;;;;;;;;;21.75;46.92;96562.22;10361540;28;2036;-76
2023/09/24 13:01:46;;;;;;;;;;;;;;;21.75;46.94;96562.22;10330493;28;2003;-75
2023/09/24 13:06:52;;;;;;;;;;;;;;;21.76;46.00;96558.53;10565158;27;1900;-74
2023/09/24 13:11:52;;;;;;;;;;;;;;;21.77;46.00;96554.84;10572975;27;1892;-73
2023/09/24 13:16:52;;;;;;;;;;;;;;;21.74;46.51;96555.38;10553087;28;1816;-78
2023/09/24 13:21:52;;;;;;;;;;;;;;;21.76;46.10;96555.91;10551495;28;1909;-74
2023/09/24 13:26:53;;;;;;;;;;;;;;;21.75;46.18;96564.88;10551196;27;1886;-73
2023/09/24 13:31:53;;;;;;;;;;;;;;;21.75;44.39;96557.75;10559407;28;1987;-73
2023/09/24 13:36:53;;;;;;;;;;;;;;;21.75;45.00;96546.38;10553225;27;1919;-74
2023/09/24 13:41:54;;;;;;;;;;;;;;;21.72;45.09;96542.41;10565763;28;4556;-73
2023/09/24 13:46:54;;;;;;;;;;;;;;;21.70;45.48;96549.81;10563376;28;1895;-74
2023/09/24 13:51:54;;;;;;;;;;;;;;;21.75;45.22;96549.03;10553837;28;2799;-80
2023/09/24 13:56:55;;;;;;;;;;;;;;;21.80;45.29;96539.25;10539168;28;1918;-76
2023/09/24 14:01:55;;;;;;;;;;;;;;;21.82;45.65;96542.47;10540959;28;2098;-76
2023/09/24 14:06:55;;;;;;;;;;;;;;;21.83;45.82;96532.72;10552699;28;1925;-76
2023/09/24 14:17:15;;;;;;;;;;;;;;;21.86;46.56;96525.03;10533065;28;2052;-76
2023/09/24 14:22:15;;;;;;;;;;;;;;;21.88;47.02;96531.94;10523439;28;1957;-76
2023/09/24 14:27:15;;;;;;;;;;;;;;;21.88;47.05;96532.72;10517146;28;1938;-76
2023/09/24 14:32:16;;;;;;;;;;;;;;;21.89;47.42;96534.28;10516872;28;1984;-76
2023/09/24 14:37:16;;;;;;;;;;;;;;;21.91;47.96;96529.53;10531942;28;2406;-76
2023/09/24 14:42:16;;;;;;;;;;;;;;;21.93;48.17;96524.78;10533775;28;4659;-77
2023/09/24 14:47:16;;;;;;;;;;;;;;;21.93;48.28;96524.03;10528595;28;1509;-77
2023/09/24 14:52:17;;;;;;;;;;;;;;;21.93;48.20;96524.78;10536577;28;2056;-80
2023/09/24 14:57:21;;;;;;;;;;;;;;;21.93;48.70;96527.44;10527681;28;1856;-80
2023/09/24 15:02:21;;;;;;;;;;;;;;;21.95;48.48;96522.69;10518175;28;2080;-74
2023/09/24 15:07:21;;;;;;;;;;;;;;;21.96;48.99;96519.00;10524583;28;1500;-73
2023/09/24 15:12:22;;;;;;;;;;;;;;;21.97;49.54;96517.16;10533322;28;1495;-74
2023/09/24 15:17:22;;;;;;;;;;;;;;;21.97;49.50;96512.66;10534939;28;1634;-73
2023/09/24 15:22:22;;;;;;;;;;;;;;;21.98;49.70;96514.25;10538892;28;2510;-75
2023/09/24 15:27:23;;;;;;;;;;;;;;;21.99;50.14;96518.47;10531280;28;1490;-74
2023/09/24 15:32:23;;;;;;;;;;;;;;;22.00;50.33;96512.13;10522091;28;1528;-76
2023/09/24 15:37:23;;;;;;;;;;;;;;;22.01;50.58;96508.44;10537611;28;1929;-76
2023/09/24 15:42:24;;;;;;;;;;;;;;;22.02;50.40;96506.59;10534649;28;4531;-75
2023/09/24 15:47:25;;;;;;;;;;;;;;;22.02;50.80;96509.22;10520579;28;1468;-83
2023/09/24 15:52:25;;;;;;;;;;;;;;;22.03;50.79;96505.53;10545735;28;1896;-78
2023/09/24 15:57:25;;;;;;;;;;;;;;;22.03;51.00;96511.59;10550840;28;1590;-78
2023/09/24 16:02:25;;;;;;;;;;;;;;;22.02;50.96;96507.38;10539164;28;2047;-77
2023/09/24 16:07:26;;;;;;;;;;;;;;;22.02;51.39;96510.03;10532641;28;2428;-78
2023/09/24 16:12:28;;;;;;;;;;;;;;;22.03;51.14;96510.81;10538562;28;1513;-73
2023/09/24 16:17:29;;;;;;;;;;;;;;;22.03;50.90;96516.09;10532431;28;1417;-74
2023/09/24 16:22:29;;;;;;;;;;;;;;;22.02;51.11;96512.66;10521577;28;1909;-73
2023/09/24 16:27:30;;;;;;;;;;;;;;;22.00;50.88;96512.13;10524216;28;1434;-77
2023/09/24 16:32:30;;;;;;;;;;;;;;;22.00;51.17;96514.78;10542085;27;1539;-77
2023/09/24 16:37:32;;;;;;;;;;;;;;;22.00;50.98;96522.69;10539431;28;1912;-78
2023/09/24 16:42:32;;;;;;;;;;;;;;;22.00;50.99;96521.91;10527584;28;4590;-79
2023/09/24 16:47:33;;;;;;;;;;;;;;;21.98;51.26;96516.88;10544845;28;1484;-81
2023/09/24 16:52:33;;;;;;;;;;;;;;;21.99;51.22;96515.03;10536043;28;2415;-84
2023/09/24 16:57:35;;;;;;;;;;;;;;;21.99;51.25;96526.38;10543027;28;1432;-84
2023/09/24 17:02:36;;;;;;;;;;;;;;;21.98;51.19;96521.38;10518808;28;1909;-75
2023/09/24 17:07:39;;;;;;;;;;;;;;;21.96;51.36;96521.63;10504228;28;1896;-81
2023/09/24 17:12:41;;;;;;;;;;;;;;;21.96;51.23;96520.84;10547473;28;1576;-78
2023/09/24 17:17:42;;;;;;;;;;;;;;;21.96;51.78;96526.13;10547311;28;1414;-76
2023/09/24 17:22:43;;;;;;;;;;;;;;;21.97;52.27;96527.72;10511107;28;1905;-75
2023/09/24 17:27:46;;;;;;;;;;;;;;;21.97;51.85;96527.72;10503075;28;2087;-76
2023/09/24 17:32:50;;;;;;;;;;;;;;;21.99;51.97;96531.66;10519860;28;1823;-75
2023/09/24 17:37:51;;;;;;;;;;;;;;;21.99;52.36;96536.16;10512794;28;2513;-75
2023/09/24 17:42:57;;;;;;;;;;;;;;;21.98;52.11;96543.28;10512631;28;4528;-75
2023/09/24 17:47:58;;;;;;;;;;;;;;;22.01;52.35;96540.09;10528423;28;1665;-74
2023/09/24 17:52:59;;;;;;;;;;;;;;;22.03;52.19;96543.28;10520246;28;2825;-75
2023/09/24 17:58:03;;;;;;;;;;;;;;;22.06;52.28;96547.25;10530178;28;1444;-75
2023/09/24 18:03:03;;;;;;;;;;;;;;;22.08;51.91;96555.69;10530413;28;1911;-77
2023/09/24 18:08:09;;;;;;;;;;;;;;;22.09;51.87;96555.41;10518091;28;1927;-75
2023/09/24 18:13:10;;;;;;;;;;;;;;;22.12;51.92;96552.28;10542757;28;1349;-75
2023/09/24 18:18:13;;;;;;;;;;;;;;;22.18;51.37;96555.69;10526273;28;1691;-74
2023/09/24 18:23:15;;;;;;;;;;;;;;;22.15;51.35;96551.75;10522399;28;1914;-75
2023/09/24 18:28:19;;;;;;;;;;;;;;;22.18;51.44;96561.78;10527875;28;1410;-75
2023/09/24 18:33:19;;;;;;;;;;;;;;;22.22;51.30;96554.91;10506312;28;1361;-74
2023/09/24 18:38:20;;;;;;;;;;;;;;;22.25;51.03;96557.03;10511422;28;2704;-72
2023/09/24 18:43:23;;;;;;;;;;;;;;;22.25;50.74;96558.88;10504649;28;4585;-73
2023/09/24 18:48:31;;;;;;;;;;;;;;;22.24;51.07;96563.34;10509240;28;1433;-75
2023/09/24 18:53:35;;;;;;;;;;;;;;;22.27;50.76;96564.69;10518533;28;1752;-75
2023/09/24 18:58:36;;;;;;;;;;;;;;;22.25;51.03;96562.31;10524989;28;1515;-75
2023/09/24 19:03:37;;;;;;;;;;;;;;;22.27;50.65;96565.47;10525057;28;1918;-73
2023/09/24 19:08:40;;;;;;;;;;;;;;;22.29;50.28;96562.56;10518094;28;1462;-75
2023/09/24 19:13:45;;;;;;;;;;;;;;;22.29;50.85;96563.38;10517722;28;1332;-74
2023/09/24 19:18:45;;;;;;;;;;;;;;;22.28;50.51;96561.78;10569415;27;1473;-74
2023/09/24 19:23:46;;;;;;;;;;;;;;;22.27;50.58;96564.69;10519677;28;2539;-79
2023/09/24 19:28:50;;;;;;;;;;;;;;;22.28;50.63;96564.41;10531946;28;1424;-74
2023/09/24 19:33:50;;;;;;;;;;;;;;;22.24;50.81;96563.34;10537737;28;1463;-74
2023/09/24 19:38:51;;;;;;;;;;;;;;;22.22;51.11;96557.53;10528601;28;2811;-73
2023/09/24 19:43:51;;;;;;;;;;;;;;;22.21;51.26;96545.41;10528601;28;4513;-72
2023/09/24 19:48:53;;;;;;;;;;;;;;;22.24;50.79;96538.78;10538844;28;1815;-79
2023/09/24 19:53:54;;;;;;;;;;;;;;;22.22;50.86;96539.06;10512211;28;1876;-78
2023/09/24 19:58:57;;;;;;;;;;;;;;;22.20;51.23;96543.81;10505829;28;2184;-76
2023/09/24 20:03:58;;;;;;;;;;;;;;;22.18;51.20;96539.84;10536900;28;1975;-75
2023/09/24 20:09:02;;;;;;;;;;;;;;;22.13;51.18;96537.22;10521000;28;2026;-77
2023/09/24 20:14:03;;;;;;;;;;;;;;;22.09;51.40;96541.44;10531191;28;1880;-77
2023/09/24 20:19:04;;;;;;;;;;;;;;;22.05;51.33;96541.16;10540695;28;1959;-77
2023/09/24 20:24:09;;;;;;;;;;;;;;;22.03;51.26;96547.78;10530951;28;2792;-76
2023/09/24 20:29:09;;;;;;;;;;;;;;;21.99;51.39;96541.44;10528105;28;1884;-75
2023/09/24 20:34:09;;;;;;;;;;;;;;;21.96;51.52;96534.03;10541118;28;2081;-76
2023/09/24 20:39:11;;;;;;;;;;;;;;;21.93;51.37;96535.34;10527830;28;1889;-76
2023/09/24 20:44:11;;;;;;;;;;;;;;;21.91;51.42;96528.78;10529371;28;1906;-75
2023/09/24 20:49:13;;;;;;;;;;;;;;;21.88;51.14;96524.81;10545706;27;2072;-74
2023/09/24 20:54:13;;;;;;;;;;;;;;;21.88;51.28;96524.00;10531095;28;1865;-77
2023/09/24 20:59:18;;;;;;;;;;;;;;;21.86;51.06;96521.63;10536327;28;1871;-75
2023/09/24 21:04:19;;;;;;;;;;;;;;;21.83;51.13;96516.88;10522792;28;1902;-74
2023/09/24 21:09:19;;;;;;;;;;;;;;;21.82;50.93;96520.59;10543428;28;2805;-75
2023/09/24 21:14:19;;;;;;;;;;;;;;;21.80;50.92;96522.66;10534038;28;1874;-75
2023/09/24 21:19:19;;;;;;;;;;;;;;;21.80;51.09;96522.66;10507592;28;1876;-75
2023/09/24 21:24:20;;;;;;;;;;;;;;;21.78;50.84;96519.50;10518465;28;1973;-76
2023/09/24 21:29:20;;;;;;;;;;;;;;;21.77;50.89;96512.63;10544974;28;1722;-76
2023/09/24 21:34:20;;;;;;;;;;;;;;;21.76;50.91;96511.03;10522684;28;2312;-76
2023/09/24 21:39:20;;;;;;;;;;;;;;;21.75;50.93;96504.16;10538892;28;1809;-76
2023/09/24 21:44:21;;;;;;;;;;;;;;;21.74;50.71;96508.66;10532151;28;4571;-76
2023/09/24 21:49:21;;;;;;;;;;;;;;;21.73;50.71;96504.44;10544772;28;1795;-76
2023/09/24 21:54:21;;;;;;;;;;;;;;;21.72;50.61;96499.44;10532131;28;2916;-76
2023/09/24 21:59:21;;;;;;;;;;;;;;;21.71;50.64;96492.56;10546739;28;1542;-76
2023/09/24 22:04:22;;;;;;;;;;;;;;;21.70;50.47;96488.34;10520949;28;1918;-76
2023/09/24 22:09:22;;;;;;;;;;;;;;;21.69;50.29;96484.91;10521050;28;1925;-75
2023/09/24 22:14:23;;;;;;;;;;;;;;;21.69;50.44;96481.47;10522859;28;1761;-75
2023/09/24 22:19:23;;;;;;;;;;;;;;;21.68;50.53;96487.78;10513197;28;1856;-76
2023/09/24 22:24:23;;;;;;;;;;;;;;;21.67;50.55;96476.47;10542182;28;1957;-74
2023/09/24 22:29:24;;;;;;;;;;;;;;;21.67;50.42;96475.66;10526905;28;1918;-74
2023/09/24 22:34:24;;;;;;;;;;;;;;;21.66;50.36;96477.50;10537089;28;1879;-76
2023/09/24 22:39:24;;;;;;;;;;;;;;;21.65;50.35;96475.94;10510680;28;1771;-76
2023/09/24 22:44:24;;;;;;;;;;;;;;;21.64;50.20;96470.91;10523403;28;4620;-77
2023/09/24 22:49:25;;;;;;;;;;;;;;;21.64;50.20;96476.19;10537685;28;1841;-76
2023/09/24 22:54:26;;;;;;;;;;;;;;;21.63;50.30;96475.41;10547511;27;1907;-76
2023/09/24 22:59:26;;;;;;;;;;;;;;;21.62;50.02;96473.00;10519967;28;1804;-77
2023/09/24 23:04:26;;;;;;;;;;;;;;;21.63;50.25;96471.97;10527573;28;1988;-76
2023/09/24 23:09:26;;;;;;;;;;;;;;;21.61;50.06;96469.59;10527943;28;2140;-76
2023/09/24 23:14:27;;;;;;;;;;;;;;;21.60;49.95;96454.81;10559475;27;2145;-77
2023/09/24 23:19:28;;;;;;;;;;;;;;;21.59;49.61;96442.69;10526934;28;2142;-77
2023/09/24 23:24:28;;;;;;;;;;;;;;;21.59;50.08;96444.53;10537682;28;2254;-77
2023/09/24 23:29:28;;;;;;;;;;;;;;;21.59;49.95;96447.16;10528273;28;2552;-77
2023/09/24 23:34:29;;;;;;;;;;;;;;;21.57;49.70;96444.00;10557504;27;1866;-77
2023/09/24 23:39:30;;;;;;;;;;;;;;;21.58;49.94;96442.94;10533988;28;1870;-76
2023/09/24 23:44:31;;;;;;;;;;;;;;;21.56;49.78;96448.47;10517310;28;4659;-77
2023/09/24 23:49:31;;;;;;;;;;;;;;;21.57;49.78;96433.44;10531007;28;1874;-77
2023/09/24 23:54:31;;;;;;;;;;;;;;;21.55;49.56;96438.19;10524730;28;1840;-77
2023/09/24 23:59:32;;;;;;;;;;;;;;;21.54;49.79;96444.50;10532570;28;2021;-76
